KCHO/CHO METAR and TAF weather

Enter ICAO airport designator
Station Type Date Time Source
KCHO METAR 2019/02/23 01:53 UTC NOAA

KCHO 230153Z 04004KT 10SM OVC095 07/01 A3040 RMK AO2 SLP297 T00720006


Station Type Date Time Source
KCHO Decoded METAR 2019/02/23 01:53 UTC NOAA

CHARLOTTESVILLE-ALBEMARLE, VA, United States (KCHO) 38-08N 078-27W 192M
Feb 22, 2019 - 08:53 PM EST / 2019.02.23 0153 UTC
Wind: from the NE (040 degrees) at 5 MPH (4 KT):0
Visibility: 10 mile(s):0
Sky conditions: overcast
Temperature: 45.0 F (7.2 C)
Dew Point: 33.1 F (0.6 C)
Relative Humidity: 62%
Pressure (altimeter): 30.4 in. Hg (1029 hPa)
ob: KCHO 230153Z 04004KT 10SM OVC095 07/01 A3040 RMK AO2 SLP297 T00720006
cycle: 2

Station Type Date Time Source
KCHO TAF 2019/02/22 18:30 UTC NOAA

TAF KCHO 221728Z 2218/2318 VRB03KT P6SM BKN025 OVC100
FM230300 VRB03KT P6SM BKN035 OVC100
FM231200 VRB03KT 5SM -RA BKN025 OVC050


Example: see airport list